Time;durP1;ratioP1;P1;durP2;ratioP2;P2;SDS_P1;SDS_P2;PMS_P1;PMS_P2;Temp;Humidity;BMP_temperature;BMP_pressure;BME280_temperature;BME280_humidity;BME280_pressure;Samples;Min_cycle;Max_cycle;Signal;HPM_P1;HPM_P2
2022/11/01 00:01:30;;;;;;;;;;;;;;;;;;5011516;28;20377;-71
2022/11/01 00:03:56;;;;;;;;;;;;;;;;;;4992234;28;19933;-71
2022/11/01 00:06:22;;;;;;;;;;;;;;;;;;4993070;28;19927;-71
2022/11/01 00:08:47;;;;;;;;;;;;;;;;;;5014653;28;20012;-70
2022/11/01 00:11:13;;;;;;;;;;;;;;;;;;5013091;28;19925;-71
2022/11/01 00:13:39;;;;;;;;;;;;;;;;;;5015204;28;19937;-71
2022/11/01 00:16:05;;;;;;;;;;;;;;;;;;5017757;28;20292;-72
2022/11/01 00:18:31;;;;;;;;;;;;;;;;;;5017712;28;19960;-71
2022/11/01 00:20:57;;;;;;;;;;;;;;;;;;4999780;28;20000;-71
2022/11/01 00:23:23;;;;;;;;;;;;;;;;;;5018207;28;20295;-71
2022/11/01 00:25:49;;;;;;;;;;;;;;;;;;5000136;28;19967;-75
2022/11/01 00:28:15;;;;;;;;;;;;;;;;;;4999707;28;19963;-71
2022/11/01 00:30:41;;;;;;;;;;;;;;;;;;4998882;28;20305;-71
2022/11/01 00:33:06;;;;;;;;;;;;;;;;;;5015120;28;20364;-71
2022/11/01 00:35:32;;;;;;;;;;;;;;;;;;4998816;28;19921;-71
2022/11/01 00:37:58;;;;;;;;;;;;;;;;;;4999854;28;19922;-71
2022/11/01 00:40:24;;;;;;;;;;;;;;;;;;5016095;28;19928;-71
2022/11/01 00:42:50;;;;;;;;;;;;;;;;;;4994671;28;20387;-71
2022/11/01 00:45:16;;;;;;;;;;;;;;;;;;4998029;28;19925;-71
2022/11/01 00:47:42;;;;;;;;;;;;;;;;;;4994916;28;19917;-70
2022/11/01 00:50:08;;;;;;;;;;;;;;;;;;5026130;28;19992;-70
2022/11/01 00:52:34;;;;;;;;;;;;;;;;;;5005769;28;19928;-70
2022/11/01 00:54:59;;;;;;;;;;;;;;;;;;4988509;28;19925;-70
2022/11/01 00:57:25;;;;;;;;;;;;;;;;;;5009156;28;19925;-70
2022/11/01 00:59:51;;;;;;;;;;;;;;;;;;4999611;28;19944;-72
2022/11/01 01:02:17;;;;;;;;;;;;;;;;;;5028981;28;19921;-70
2022/11/01 01:04:43;;;;;;;;;;;;;;;;;;5011124;28;19925;-70
2022/11/01 01:07:09;;;;;;;;;;;;;;;;;;5030501;28;20379;-70
2022/11/01 01:09:35;;;;;;;;;;;;;;;;;;5028868;28;19921;-70
2022/11/01 01:12:01;;;;;;;;;;;;;;;;;;5030023;28;19925;-70
2022/11/01 01:14:27;;;;;;;;;;;;;;;;;;5011506;28;20583;-70
2022/11/01 01:16:53;;;;;;;;;;;;;;;;;;5011505;28;19932;-70
2022/11/01 01:19:19;;;;;;;;;;;;;;;;;;5011610;28;20484;-70
2022/11/01 01:21:45;;;;;;;;;;;;;;;;;;5028822;28;19928;-71
2022/11/01 01:24:11;;;;;;;5.70;4.90;;;;;;;;;;5029590;28;20117;-70
2022/11/01 01:26:37;;;;;;;6.60;4.57;;;;;;;;;;5029112;28;20045;-70
2022/11/01 01:29:03;;;;;;;4.70;4.20;;;;;;;;;;5028685;28;20108;-70
2022/11/01 01:31:29;;;;;;;;;;;;;;;;;;5011313;28;19921;-70
2022/11/01 01:33:54;;;;;;;;;;;;;;;;;;5011439;28;20351;-70
2022/11/01 01:36:20;;;;;;;;;;;;;;;;;;5028486;28;19928;-70
2022/11/01 01:38:46;;;;;;;;;;;;;;;;;;5029480;28;19932;-71
2022/11/01 01:43:58;;;;;;;;;;;;;;;;;;5010502;28;19921;-70
2022/11/01 01:46:24;;;;;;;;;;;;;;;;;;5029035;28;19955;-70
2022/11/01 01:48:50;;;;;;;;;;;;;;;;;;5029208;28;20356;-70
2022/11/01 01:51:16;;;;;;;;;;;;;;;;;;5010598;28;19925;-70
2022/11/01 01:53:42;;;;;;;;;;;;;;;;;;5011945;28;19921;-70
2022/11/01 01:56:08;;;;;;;;;;;;;;;;;;5011961;28;19924;-70
2022/11/01 01:58:33;;;;;;;;;;;;;;;;;;5028211;28;20319;-70
2022/11/01 02:00:59;;;;;;;;;;;;;;;;;;5011074;28;19928;-70
2022/11/01 02:03:25;;;;;;;;;;;;;;;;;;5010863;28;19925;-70
2022/11/01 02:05:51;;;;;;;;;;;;;;;;;;5028547;28;19929;-70
2022/11/01 02:08:25;;;;;;;;;;;;;;;;;;5009840;28;19971;-70
2022/11/01 02:10:51;;;;;;;;;;;;;;;;;;5010474;28;19931;-70
2022/11/01 02:13:17;;;;;;;;;;;;;;;;;;5010419;28;19920;-70
2022/11/01 02:15:43;;;;;;;;;;;;;;;;;;5028180;28;19983;-70
2022/11/01 02:18:09;;;;;;;;;;;;;;;;;;5010584;28;20358;-70
2022/11/01 02:20:35;;;;;;;;;;;;;;;;;;5028449;28;19920;-70
2022/11/01 02:23:00;;;;;;;;;;;;;;;;;;5028355;28;20524;-70
2022/11/01 02:25:26;;;;;;;;;;;;;;;;;;5027707;28;19925;-70
2022/11/01 02:27:52;;;;;;;;;;;;;;;;;;5028405;28;19917;-71
2022/11/01 02:30:18;;;;;;;;;;;;;;;;;;5027818;28;19987;-70
2022/11/01 02:32:44;;;;;;;;;;;;;;;;;;5009890;28;19917;-70
2022/11/01 02:35:30;;;;;;;6.53;4.70;;;;;;;;;;5028546;28;19921;-70
2022/11/01 02:37:59;;;;;;;4.90;4.50;;;;;;;;;;4970547;28;20068;-70
2022/11/01 02:40:34;;;;;;;4.43;3.72;;;;;;;;;;5008984;28;20042;-70
2022/11/01 02:43:04;;;;;;;5.25;4.10;;;;;;;;;;5010149;28;20104;-70
2022/11/01 02:45:38;;;;;;;5.63;4.30;;;;;;;;;;5027356;28;20053;-70
2022/11/01 02:48:05;;;;;;;6.50;4.65;;;;;;;;;;5009002;28;20107;-70
2022/11/01 02:50:34;;;;;;;4.72;4.20;;;;;;;;;;5004387;28;20139;-70
2022/11/01 02:53:00;;;;;;;4.70;4.10;;;;;;;;;;5013377;28;20045;-70
2022/11/01 02:55:28;;;;;;;6.40;4.93;;;;;;;;;;5007056;28;20551;-70
2022/11/01 02:57:55;;;;;;;7.50;4.63;;;;;;;;;;5008363;28;20124;-70
2022/11/01 03:00:23;;;;;;;7.25;5.18;;;;;;;;;;5026404;28;20137;-70
2022/11/01 03:02:52;;;;;;;6.10;4.60;;;;;;;;;;5009597;28;20056;-70
2022/11/01 03:05:26;;;;;;;6.95;4.93;;;;;;;;;;4990512;28;20087;-70
2022/11/01 03:07:56;;;;;;;4.80;3.67;;;;;;;;;;5006841;28;20049;-70
2022/11/01 03:10:25;;;;;;;4.13;3.72;;;;;;;;;;5007018;28;20046;-70
2022/11/01 03:12:58;;;;;;;4.43;3.47;;;;;;;;;;5007413;28;20049;-70
2022/11/01 03:15:24;;;;;;;;;;;;;;;;;;4989073;28;20036;-70
2022/11/01 03:17:50;;;;;;;;;;;;;;;;;;5007350;28;20412;-70
2022/11/01 03:20:16;;;;;;;;;;;;;;;;;;5007105;28;20372;-70
2022/11/01 03:22:42;;;;;;;;;;;;;;;;;;4989782;28;19964;-70
2022/11/01 03:25:37;;;;;;;;;;;;;;;;;;5008065;28;19927;-70
2022/11/01 03:27:54;;;;;;;;;;;;;;;;;;4989905;28;20004;-70
2022/11/01 03:30:20;;;;;;;;;;;;;;;;;;5006435;28;20036;-70
2022/11/01 03:32:46;;;;;;;;;;;;;;;;;;4989776;28;19925;-70
2022/11/01 03:35:12;;;;;;;;;;;;;;;;;;4989025;28;19917;-70
2022/11/01 03:37:38;;;;;;;;;;;;;;;;;;4990014;28;19994;-69
2022/11/01 03:40:04;;;;;;;;;;;;;;;;;;5007212;28;19929;-70
2022/11/01 03:42:30;;;;;;;;;;;;;;;;;;4988559;28;20735;-70
2022/11/01 03:44:56;;;;;;;;;;;;;;;;;;5007070;28;19929;-70
2022/11/01 03:47:22;;;;;;;;;;;;;;;;;;5011779;28;20015;-70
2022/11/01 03:49:47;;;;;;;;;;;;;;;;;;5020080;28;20063;-70
2022/11/01 03:52:13;;;;;;;;;;;;;;;;;;5006900;28;19944;-71
2022/11/01 03:54:39;;;;;;;;;;;;;;;;;;5007572;28;19972;-70
2022/11/01 03:57:05;;;;;;;;;;;;;;;;;;5006313;28;19928;-71
2022/11/01 03:59:31;;;;;;;;;;;;;;;;;;5008500;28;19925;-70
2022/11/01 04:01:57;;;;;;;;;;;;;;;;;;5026630;28;19920;-70
2022/11/01 04:04:23;;;;;;;;;;;;;;;;;;5007910;28;20349;-70
2022/11/01 04:06:49;;;;;;;;;;;;;;;;;;5009125;28;19921;-70
2022/11/01 04:09:15;;;;;;;;;;;;;;;;;;5026425;28;19921;-70
2022/11/01 04:11:42;;;;;;;;;;;;;;;;;;5026586;28;19933;-70
2022/11/01 04:22:22;;;;;;;;;;;;;;;;;;5023788;28;19921;-70
2022/11/01 04:24:48;;;;;;;;;;;;;;;;;;4992850;28;19928;-71
2022/11/01 04:27:14;;;;;;;;;;;;;;;;;;4992796;28;19921;-70
2022/11/01 04:29:40;;;;;;;;;;;;;;;;;;5009519;28;19921;-70
2022/11/01 04:32:06;;;;;;;;;;;;;;;;;;4994665;28;19988;-70
2022/11/01 04:34:41;;;;;;;;;;;;;;;;;;4994926;28;20373;-70
2022/11/01 04:37:07;;;;;;;;;;;;;;;;;;5013438;28;19927;-70
2022/11/01 04:39:33;;;;;;;;;;;;;;;;;;4994372;28;20379;-71
2022/11/01 04:41:59;;;;;;;;;;;;;;;;;;5013312;28;19936;-70
2022/11/01 04:44:24;;;;;;;;;;;;;;;;;;4995144;28;19996;-70
2022/11/01 04:46:50;;;;;;;;;;;;;;;;;;4994560;28;19921;-70
2022/11/01 04:49:16;;;;;;;;;;;;;;;;;;5012460;28;19933;-70
2022/11/01 04:51:42;;;;;;;;;;;;;;;;;;5023992;28;19921;-70
2022/11/01 04:54:08;;;;;;;;;;;;;;;;;;5032590;28;19921;-70
2022/11/01 04:56:34;;;;;;;;;;;;;;;;;;5019201;28;19972;-70
2022/11/01 04:59:00;;;;;;;;;;;;;;;;;;5013005;28;20512;-70
2022/11/01 05:01:26;;;;;;;;;;;;;;;;;;4994245;28;19932;-70
2022/11/01 05:03:52;;;;;;;;;;;;;;;;;;5005179;28;19925;-70
2022/11/01 05:06:17;;;;;;;;;;;;;;;;;;4994829;28;19921;-70
2022/11/01 05:08:43;;;;;;;;;;;;;;;;;;4994457;28;20477;-71
2022/11/01 05:11:09;;;;;;;;;;;;;;;;;;4995436;28;19928;-69
2022/11/01 05:13:35;;;;;;;;;;;;;;;;;;4993698;28;19922;-70
2022/11/01 05:16:02;;;;;;;6.25;4.00;;;;;;;;;;5004507;28;20303;-70
2022/11/01 05:18:28;;;;;;;4.35;3.80;;;;;;;;;;5031743;28;20053;-70
2022/11/01 05:20:55;;;;;;;6.63;4.15;;;;;;;;;;4997782;28;20053;-70
2022/11/01 05:23:21;;;;;;;4.93;3.95;;;;;;;;;;4994286;28;20056;-70
2022/11/01 05:25:47;;;;;;;6.32;3.97;;;;;;;;;;5012076;28;20038;-70
2022/11/01 05:28:13;;;;;;;5.97;3.60;;;;;;;;;;4994791;28;20057;-71
2022/11/01 05:30:40;;;;;;;6.57;4.03;;;;;;;;;;5012230;28;20056;-70
2022/11/01 05:33:06;;;;;;;5.93;3.45;;;;;;;;;;5003141;28;20084;-70
2022/11/01 05:35:33;;;;;;;7.00;4.53;;;;;;;;;;4991696;28;20689;-71
2022/11/01 05:38:00;;;;;;;5.07;3.60;;;;;;;;;;5002588;28;20045;-70
2022/11/01 05:40:26;;;;;;;6.53;3.75;;;;;;;;;;5000144;28;20057;-70
2022/11/01 05:42:53;;;;;;;;;;;;;;;;;;5011052;28;20056;-69
2022/11/01 05:45:18;;;;;;;;;;;;;;;;;;4999196;28;19960;-70
2022/11/01 05:47:44;;;;;;;;;;;;;;;;;;5011546;28;19976;-71
2022/11/01 05:50:10;;;;;;;;;;;;;;;;;;5011090;28;19921;-71
2022/11/01 05:52:36;;;;;;;;;;;;;;;;;;5011072;28;19978;-71
2022/11/01 05:55:02;;;;;;;;;;;;;;;;;;5011377;28;20288;-71
2022/11/01 05:57:28;;;;;;;;;;;;;;;;;;5010414;28;20422;-71
2022/11/01 05:59:54;;;;;;;;;;;;;;;;;;5011145;28;19925;-71
2022/11/01 06:02:20;;;;;;;;;;;;;;;;;;5006361;28;19974;-71
2022/11/01 06:04:46;;;;;;;;;;;;;;;;;;4998982;28;19925;-71
2022/11/01 06:07:12;;;;;;;;;;;;;;;;;;4993098;28;19921;-70
2022/11/01 06:09:38;;;;;;;;;;;;;;;;;;4991636;28;19925;-70
2022/11/01 06:12:03;;;;;;;;;;;;;;;;;;5006442;28;19972;-70
2022/11/01 06:14:29;;;;;;;;;;;;;;;;;;5002626;28;19921;-70
2022/11/01 06:16:55;;;;;;;;;;;;;;;;;;5004579;28;19921;-71
2022/11/01 06:19:21;;;;;;;;;;;;;;;;;;5028208;28;19928;-71
2022/11/01 06:21:47;;;;;;;;;;;;;;;;;;5002221;28;19968;-71
2022/11/01 06:24:13;;;;;;;;;;;;;;;;;;5020449;28;19928;-71
2022/11/01 06:26:39;;;;;;;;;;;;;;;;;;4998133;28;19928;-70
2022/11/01 06:29:05;;;;;;;;;;;;;;;;;;5025935;28;20400;-70
2022/11/01 06:31:31;;;;;;;;;;;;;;;;;;5005031;28;19921;-71
2022/11/01 06:33:57;;;;;;;;;;;;;;;;;;4994484;28;19921;-70
2022/11/01 06:36:22;;;;;;;;;;;;;;;;;;5008231;28;19921;-71
2022/11/01 06:38:48;;;;;;;;;;;;;;;;;;5008410;28;19928;-70
2022/11/01 06:41:14;;;;;;;;;;;;;;;;;;4999344;28;19922;-70
2022/11/01 06:43:40;;;;;;;;;;;;;;;;;;4998735;28;19925;-71
2022/11/01 06:46:06;;;;;;;;;;;;;;;;;;4989781;28;20430;-70
2022/11/01 06:48:32;;;;;;;;;;;;;;;;;;5011831;28;20217;-71
2022/11/01 06:50:58;;;;;;;;;;;;;;;;;;4997136;28;19921;-70
2022/11/01 06:53:24;;;;;;;;;;;;;;;;;;5008848;28;19925;-71
2022/11/01 06:55:51;;;;;;;;;;;;;;;;;;4994560;28;19921;-70
2022/11/01 06:58:16;;;;;;;;;;;;;;;;;;5007962;28;19966;-71
2022/11/01 07:00:42;;;;;;;;;;;;;;;;;;5008389;28;19979;-70
2022/11/01 07:03:08;;;;;;;;;;;;;;;;;;5001716;28;19925;-71
2022/11/01 07:05:34;;;;;;;;;;;;;;;;;;5014231;28;19921;-70
2022/11/01 07:08:00;;;;;;;;;;;;;;;;;;5027195;28;19925;-70
2022/11/01 07:10:26;;;;;;;;;;;;;;;;;;5009730;28;19921;-70
2022/11/01 07:12:52;;;;;;;;;;;;;;;;;;5027443;28;20375;-70
2022/11/01 07:15:18;;;;;;;;;;;;;;;;;;5008846;28;19931;-70
2022/11/01 07:17:46;;;;;;;;;;;;;;;;;;5013900;28;19927;-71
2022/11/01 07:20:12;;;;;;;;;;;;;;;;;;5026809;28;19971;-74
2022/11/01 07:22:38;;;;;;;;;;;;;;;;;;5025112;28;19968;-71
2022/11/01 07:28:08;;;;;;;;;;;;;;;;;;5010524;28;19977;-70
2022/11/01 07:30:34;;;;;;;;;;;;;;;;;;5019378;28;19925;-71
2022/11/01 07:33:00;;;;;;;;;;;;;;;;;;5009885;28;20348;-70
2022/11/01 07:35:26;;;;;;;;;;;;;;;;;;5026367;28;19992;-70
2022/11/01 07:37:51;;;;;;;;;;;;;;;;;;5009827;28;19966;-70
2022/11/01 07:40:17;;;;;;;;;;;;;;;;;;5026769;28;19990;-70
2022/11/01 07:42:43;;;;;;;;;;;;;;;;;;5017675;28;19930;-70
2022/11/01 07:45:09;;;;;;;;;;;;;;;;;;5009962;28;19921;-70
2022/11/01 07:47:35;;;;;;;;;;;;;;;;;;4990766;28;20364;-71
2022/11/01 07:50:01;;;;;;;;;;;;;;;;;;4993910;28;20288;-71
2022/11/01 07:52:27;;;;;;;;;;;;;;;;;;5015658;28;19929;-70
2022/11/01 07:54:53;;;;;;;;;;;;;;;;;;5000392;28;19972;-70
2022/11/01 07:57:19;;;;;;;;;;;;;;;;;;5015134;28;20293;-70
2022/11/01 07:59:44;;;;;;;;;;;;;;;;;;4995171;28;19966;-71
2022/11/01 08:02:10;;;;;;;;;;;;;;;;;;4994384;28;19978;-70
2022/11/01 08:04:36;;;;;;;;;;;;;;;;;;4993408;28;20350;-69
2022/11/01 08:07:02;;;;;;;;;;;;;;;;;;4992904;28;19925;-70
2022/11/01 08:09:28;;;;;;;;;;;;;;;;;;4995349;28;19921;-70
2022/11/01 08:11:54;;;;;;;;;;;;;;;;;;4992166;28;19921;-70
2022/11/01 08:14:20;;;;;;;;;;;;;;;;;;5015564;28;19921;-70
2022/11/01 08:16:46;;;;;;;;;;;;;;;;;;4992332;28;19923;-70
2022/11/01 08:19:12;;;;;;;;;;;;;;;;;;5025243;28;19925;-70
2022/11/01 08:21:38;;;;;;;;;;;;;;;;;;5011194;28;19968;-70
2022/11/01 08:24:03;;;;;;;;;;;;;;;;;;5025768;28;19932;-70
2022/11/01 08:26:29;;;;;;;;;;;;;;;;;;4994722;28;19975;-70
2022/11/01 08:28:55;;;;;;;;;;;;;;;;;;5008257;28;19992;-70
2022/11/01 08:31:21;;;;;;;;;;;;;;;;;;4999731;28;19921;-70
2022/11/01 08:33:47;;;;;;;;;;;;;;;;;;4992774;28;19921;-70
2022/11/01 08:36:14;;;;;;;;;;;;;;;;;;4985659;28;20380;-70
2022/11/01 08:38:40;;;;;;;;;;;;;;;;;;5014078;28;20398;-69
2022/11/01 08:41:06;;;;;;;;;;;;;;;;;;4979849;28;20360;-66
2022/11/01 08:43:31;;;;;;;;;;;;;;;;;;5005039;28;19999;-64
2022/11/01 08:45:58;;;;;;;;;;;;;;;;;;4988184;28;19922;-68
2022/11/01 08:48:24;;;;;;;;;;;;;;;;;;4988372;28;20271;-68
2022/11/01 08:50:50;;;;;;;;;;;;;;;;;;5010078;28;19921;-66
2022/11/01 08:53:17;;;;;;;;;;;;;;;;;;4990104;28;19928;-65
2022/11/01 08:55:43;;;;;;;;;;;;;;;;;;4989772;28;19976;-66
2022/11/01 08:58:09;;;;;;;;;;;;;;;;;;5013651;28;19921;-66
2022/11/01 09:00:35;;;;;;;;;;;;;;;;;;5015249;28;19932;-66
2022/11/01 09:03:00;;;;;;;;;;;;;;;;;;4989699;28;19917;-66
2022/11/01 09:05:29;;;;;;;;;;;;;;;;;;4996492;28;20372;-66
2022/11/01 09:07:56;;;;;;;;;;;;;;;;;;4989384;28;19921;-66
2022/11/01 09:10:21;;;;;;;;;;;;;;;;;;4979427;28;20028;-66
2022/11/01 09:12:47;;;;;;;;;;;;;;;;;;4985652;28;20016;-66
2022/11/01 09:15:13;;;;;;;;;;;;;;;;;;4989734;28;19925;-66
2022/11/01 09:17:39;;;;;;;;;;;;;;;;;;4996040;28;19929;-67
2022/11/01 09:20:05;;;;;;;;;;;;;;;;;;5007842;28;19936;-67
2022/11/01 09:22:31;;;;;;;;;;;;;;;;;;5005673;28;19921;-67
2022/11/01 09:24:57;;;;;;;;;;;;;;;;;;5005173;28;19983;-67
2022/11/01 09:27:23;;;;;;;;;;;;;;;;;;4988008;28;20168;-69
2022/11/01 09:29:49;;;;;;;;;;;;;;;;;;4991118;28;19973;-67
2022/11/01 09:32:15;;;;;;;;;;;;;;;;;;5005941;28;20000;-67
2022/11/01 09:34:41;;;;;;;;;;;;;;;;;;4989170;28;19922;-67
2022/11/01 09:37:07;;;;;;;;;;;;;;;;;;5006442;28;19980;-67
2022/11/01 09:39:33;;;;;;;;;;;;;;;;;;4987698;28;20081;-67
2022/11/01 09:41:58;;;;;;;;;;;;;;;;;;4984403;28;19925;-67
2022/11/01 09:44:24;;;;;;;;;;;;;;;;;;4991392;28;20027;-67
2022/11/01 09:46:50;;;;;;;;;;;;;;;;;;4990863;28;20373;-67
2022/11/01 09:49:16;;;;;;;;;;;;;;;;;;4990640;28;20253;-67
2022/11/01 09:51:42;;;;;;;;;;;;;;;;;;4994653;28;19936;-71
2022/11/01 09:54:08;;;;;;;;;;;;;;;;;;4993731;28;19985;-77
2022/11/01 09:56:35;;;;;;;;;;;;;;;;;;4979127;28;19953;-66
2022/11/01 09:59:01;;;;;;;;;;;;;;;;;;4981768;28;19921;-66
2022/11/01 10:01:27;;;;;;;;;;;;;;;;;;5002054;28;19928;-66
2022/11/01 10:03:52;;;;;;;;;;;;;;;;;;4994377;28;19921;-66
2022/11/01 10:06:18;;;;;;;;;;;;;;;;;;4998466;28;19925;-66
2022/11/01 10:08:45;;;;;;;;;;;;;;;;;;4984294;28;19928;-67
2022/11/01 10:11:10;;;;;;;;;;;;;;;;;;4983743;28;19926;-66
2022/11/01 10:13:37;;;;;;;;;;;;;;;;;;4981255;28;20364;-66
2022/11/01 10:16:02;;;;;;;;;;;;;;;;;;4999120;28;19925;-66
2022/11/01 10:18:29;;;;;;;;;;;;;;;;;;4998897;28;20016;-66
2022/11/01 10:20:55;;;;;;;;;;;;;;;;;;4998639;28;19944;-66
2022/11/01 10:23:21;;;;;;;;;;;;;;;;;;4983461;28;20368;-65
2022/11/01 10:25:50;;;;;;;;;;;;;;;;;;4983798;28;20219;-64
2022/11/01 10:28:16;;;;;;;;;;;;;;;;;;5006129;28;20405;-64
2022/11/01 10:30:41;;;;;;;;;;;;;;;;;;5007555;28;20008;-64
2022/11/01 10:33:07;;;;;;;;;;;;;;;;;;4996188;28;19921;-64
2022/11/01 10:35:33;;;;;;;;;;;;;;;;;;4997199;28;20055;-64
2022/11/01 10:37:59;;;;;;;;;;;;;;;;;;5007884;28;19944;-65
2022/11/01 10:40:25;;;;;;;;;;;;;;;;;;5017705;28;19925;-64
2022/11/01 10:42:51;;;;;;;;;;;;;;;;;;5005064;28;20338;-64
2022/11/01 10:45:18;;;;;;;16.17;3.72;;;;;;;;;;4991090;28;19967;-65
2022/11/01 10:47:45;;;;;;;11.23;2.83;;;;;;;;;;4990641;28;20362;-65
2022/11/01 10:50:11;;;;;;;10.45;3.00;;;;;;;;;;4989124;28;20107;-65
2022/11/01 10:52:50;;;;;;;11.38;2.97;;;;;;;;;;4992674;28;20053;-65
2022/11/01 10:55:21;;;;;;;13.27;3.33;;;;;;;;;;4995639;28;20103;-65
2022/11/01 10:57:51;;;;;;;11.30;3.15;;;;;;;;;;5023824;28;20073;-65
2022/11/01 11:00:18;;;;;;;14.60;2.88;;;;;;;;;;4989048;28;20125;-65
2022/11/01 11:02:47;;;;;;;7.80;2.60;;;;;;;;;;4990556;28;20105;-65
2022/11/01 11:05:14;;;;;;;7.65;2.15;;;;;;;;;;5023078;28;20532;-65
2022/11/01 11:07:40;;;;;;;13.27;3.25;;;;;;;;;;5008248;28;20056;-65
2022/11/01 11:10:15;;;;;;;16.02;3.35;;;;;;;;;;5008066;28;20048;-65
2022/11/01 11:12:42;;;;;;;13.18;2.45;;;;;;;;;;5026782;28;20400;-65
2022/11/01 11:15:17;;;;;;;10.55;2.50;;;;;;;;;;5004730;28;20037;-65
2022/11/01 11:17:44;;;;;;;10.52;3.20;;;;;;;;;;5004278;28;20060;-65
2022/11/01 11:20:12;;;;;;;14.18;3.03;;;;;;;;;;5003852;28;20097;-65
2022/11/01 11:22:40;;;;;;;11.00;3.00;;;;;;;;;;5006581;28;20065;-65
2022/11/01 11:25:12;;;;;;;12.90;3.35;;;;;;;;;;5006296;28;20045;-65
2022/11/01 11:27:43;;;;;;;7.97;2.72;;;;;;;;;;4987597;28;20056;-64
2022/11/01 11:30:12;;;;;;;7.70;2.17;;;;;;;;;;4989358;28;20493;-64
2022/11/01 11:32:45;;;;;;;9.85;2.30;;;;;;;;;;5006979;28;20045;-64
2022/11/01 11:35:19;;;;;;;9.60;2.70;;;;;;;;;;5022924;28;20042;-64
2022/11/01 11:37:57;;;;;;;14.52;3.17;;;;;;;;;;5008511;28;20038;-65
2022/11/01 11:40:23;;;;;;;;;;;;;;;;;;4981377;28;20534;-64
2022/11/01 11:42:49;;;;;;;;;;;;;;;;;;5010591;28;19957;-64
2022/11/01 11:45:15;;;;;;;;;;;;;;;;;;5008186;28;19948;-64
2022/11/01 11:47:41;;;;;;;;;;;;;;;;;;5001251;28;19926;-64
2022/11/01 11:50:07;;;;;;;;;;;;;;;;;;5003692;28;20001;-65
2022/11/01 11:52:34;;;;;;;;;;;;;;;;;;4983622;28;20157;-65
2022/11/01 11:55:00;;;;;;;;;;;;;;;;;;5013667;28;19984;-63
2022/11/01 11:57:28;;;;;;;;;;;;;;;;;;5001186;28;19940;-65
2022/11/01 11:59:54;;;;;;;;;;;;;;;;;;4982635;28;19985;-65
2022/11/01 12:02:20;;;;;;;;;;;;;;;;;;4985135;28;19929;-64
2022/11/01 12:04:46;;;;;;;;;;;;;;;;;;4989727;28;20044;-64
2022/11/01 12:07:12;;;;;;;;;;;;;;;;;;4974282;28;20004;-66
2022/11/01 12:09:39;;;;;;;;;;;;;;;;;;4968852;28;20020;-64
2022/11/01 12:12:04;;;;;;;;;;;;;;;;;;4969243;28;19926;-64
2022/11/01 12:14:30;;;;;;;;;;;;;;;;;;4986930;28;19926;-64
2022/11/01 12:16:56;;;;;;;;;;;;;;;;;;4998853;28;19929;-64
2022/11/01 12:19:22;;;;;;;;;;;;;;;;;;4986997;28;20296;-64
2022/11/01 12:21:48;;;;;;;;;;;;;;;;;;4994349;28;19922;-65
2022/11/01 12:24:14;;;;;;;;;;;;;;;;;;5004647;28;19930;-65
2022/11/01 12:26:40;;;;;;;;;;;;;;;;;;4994992;28;19968;-65
2022/11/01 12:29:06;;;;;;;;;;;;;;;;;;5004058;28;19975;-66
2022/11/01 12:31:33;;;;;;;;;;;;;;;;;;4969632;28;19930;-67
2022/11/01 12:33:58;;;;;;;;;;;;;;;;;;4999410;28;19930;-67
2022/11/01 12:36:24;;;;;;;;;;;;;;;;;;4989028;28;19936;-67
2022/11/01 12:38:50;;;;;;;;;;;;;;;;;;5008309;28;19925;-67
2022/11/01 12:41:16;;;;;;;;;;;;;;;;;;4989632;28;20566;-67
2022/11/01 12:43:42;;;;;;;;;;;;;;;;;;4988189;28;20355;-68
2022/11/01 12:46:08;;;;;;;;;;;;;;;;;;5002933;28;20011;-68
2022/11/01 12:48:34;;;;;;;;;;;;;;;;;;4994401;28;19964;-67
2022/11/01 12:51:00;;;;;;;;;;;;;;;;;;4989313;28;19976;-68
2022/11/01 12:53:26;;;;;;;;;;;;;;;;;;5002580;28;19926;-68
2022/11/01 12:55:52;;;;;;;;;;;;;;;;;;5001734;28;19933;-66
2022/11/01 12:58:18;;;;;;;;;;;;;;;;;;4982686;28;20297;-73
2022/11/01 13:00:44;;;;;;;;;;;;;;;;;;5000827;28;19976;-72
2022/11/01 13:03:09;;;;;;;;;;;;;;;;;;4982682;28;20008;-71
2022/11/01 13:05:35;;;;;;;;;;;;;;;;;;4984323;28;19929;-71
2022/11/01 13:08:01;;;;;;;;;;;;;;;;;;4997739;28;20372;-71
2022/11/01 13:10:27;;;;;;;;;;;;;;;;;;4986029;28;19929;-72
2022/11/01 13:12:53;;;;;;;;;;;;;;;;;;4982927;28;20008;-72
2022/11/01 13:15:19;;;;;;;;;;;;;;;;;;4983130;28;20354;-71
2022/11/01 13:17:45;;;;;;;;;;;;;;;;;;5002882;28;19960;-70
2022/11/01 13:20:13;;;;;;;;;;;;;;;;;;5003114;28;19933;-72
2022/11/01 13:22:39;;;;;;;;;;;;;;;;;;4980309;28;20065;-72
2022/11/01 13:25:05;;;;;;;;;;;;;;;;;;4998114;28;20472;-72
2022/11/01 13:27:31;;;;;;;;;;;;;;;;;;4980801;28;20032;-72
2022/11/01 13:29:58;;;;;;;;;;;;;;;;;;4998533;28;19930;-72
2022/11/01 13:32:23;;;;;;;;;;;;;;;;;;4980683;28;20234;-72
2022/11/01 13:34:49;;;;;;;;;;;;;;;;;;4974021;28;19930;-72
2022/11/01 13:37:15;;;;;;;;;;;;;;;;;;4991952;28;19921;-72
2022/11/01 13:39:41;;;;;;;;;;;;;;;;;;4980503;28;19933;-70
2022/11/01 13:42:07;;;;;;;;;;;;;;;;;;4978389;28;20361;-76
2022/11/01 13:44:33;;;;;;;;;;;;;;;;;;5001546;28;19926;-72
2022/11/01 13:46:59;;;;;;;;;;;;;;;;;;4986641;28;19937;-69
2022/11/01 13:49:25;;;;;;;;;;;;;;;;;;4987497;28;19948;-69
2022/11/01 13:51:54;;;;;;;;;;;;;;;;;;4985892;28;19921;-69
2022/11/01 13:54:20;;;;;;;;;;;;;;;;;;4999039;28;19925;-71
2022/11/01 13:56:46;;;;;;;;;;;;;;;;;;4981593;28;19960;-69
2022/11/01 13:59:12;;;;;;;;;;;;;;;;;;4977528;28;19988;-69
2022/11/01 14:01:41;;;;;;;;;;;;;;;;;;4979473;28;19979;-70
2022/11/01 14:04:07;;;;;;;;;;;;;;;;;;4987969;28;20049;-70
2022/11/01 14:06:33;;;;;;;;;;;;;;;;;;4995859;28;20024;-70
2022/11/01 14:08:58;;;;;;;;;;;;;;;;;;5001984;28;19971;-69
2022/11/01 14:11:24;;;;;;;;;;;;;;;;;;5007381;28;20364;-69
2022/11/01 14:13:50;;;;;;;;;;;;;;;;;;4984010;28;19930;-69
2022/11/01 14:16:18;;;;;;;;;;;;;;;;;;5000857;28;19926;-71
2022/11/01 14:18:44;;;;;;;;;;;;;;;;;;4981300;28;19989;-68
2022/11/01 14:21:10;;;;;;;;;;;;;;;;;;5007832;28;19921;-67
2022/11/01 14:23:36;;;;;;;;;;;;;;;;;;4984693;28;19932;-69
2022/11/01 14:26:02;;;;;;;;;;;;;;;;;;4990446;28;19925;-71
2022/11/01 14:28:27;;;;;;;;;;;;;;;;;;5001598;28;19926;-71
2022/11/01 14:30:53;;;;;;;;;;;;;;;;;;5005135;28;19929;-70
2022/11/01 14:33:19;;;;;;;;;;;;;;;;;;4986404;28;19921;-72
2022/11/01 14:35:45;;;;;;;;;;;;;;;;;;4993118;28;19921;-72
2022/11/01 14:38:11;;;;;;;;;;;;;;;;;;4979958;28;20265;-72
2022/11/01 14:40:37;;;;;;;;;;;;;;;;;;4987525;28;20394;-72
2022/11/01 14:43:03;;;;;;;;;;;;;;;;;;4989001;28;19925;-72
2022/11/01 14:45:29;;;;;;;;;;;;;;;;;;4983338;28;19957;-72
2022/11/01 14:47:55;;;;;;;;;;;;;;;;;;4997898;28;20381;-71
2022/11/01 14:50:22;;;;;;;;;;;;;;;;;;4976374;28;20570;-72
2022/11/01 14:52:48;;;;;;;;;;;;;;;;;;4981251;28;19936;-71
2022/11/01 14:55:14;;;;;;;;;;;;;;;;;;4985153;28;19929;-71
2022/11/01 14:57:40;;;;;;;;;;;;;;;;;;4992084;28;20309;-71
2022/11/01 15:00:06;;;;;;;;;;;;;;;;;;5008275;28;19987;-72
2022/11/01 15:02:32;;;;;;;;;;;;;;;;;;4989183;28;20015;-71
2022/11/01 15:04:58;;;;;;;;;;;;;;;;;;4999867;28;19935;-72
2022/11/01 15:07:24;;;;;;;;;;;;;;;;;;5003131;28;19947;-72
2022/11/01 15:09:50;;;;;;;;;;;;;;;;;;5014181;28;19930;-72
2022/11/01 15:12:16;;;;;;;;;;;;;;;;;;4987510;28;20299;-72
2022/11/01 15:14:42;;;;;;;;;;;;;;;;;;5009600;28;20277;-71
2022/11/01 15:17:08;;;;;;;;;;;;;;;;;;5004076;28;19927;-71
2022/11/01 15:19:34;;;;;;;;;;;;;;;;;;5007369;28;19951;-72
2022/11/01 15:22:02;;;;;;;;;;;;;;;;;;4995105;28;19929;-73
2022/11/01 15:24:29;;;;;;;;;;;;;;;;;;4989586;28;20180;-73
2022/11/01 15:26:55;;;;;;;;;;;;;;;;;;5009538;28;20108;-74
2022/11/01 15:29:21;;;;;;;;;;;;;;;;;;5013525;28;19921;-73
2022/11/01 15:31:47;;;;;;;;;;;;;;;;;;5009165;28;19916;-73
2022/11/01 15:34:12;;;;;;;;;;;;;;;;;;5014841;28;19971;-73
2022/11/01 15:36:39;;;;;;;;;;;;;;;;;;5018505;28;19922;-73
2022/11/01 15:39:05;;;;;;;;;;;;;;;;;;5006586;28;20004;-73
2022/11/01 15:41:30;;;;;;;;;;;;;;;;;;4988077;28;20016;-73
2022/11/01 15:43:56;;;;;;;;;;;;;;;;;;4991155;28;19928;-73
2022/11/01 15:46:22;;;;;;;;;;;;;;;;;;4991108;28;19932;-73
2022/11/01 15:48:48;;;;;;;;;;;;;;;;;;4982827;28;20056;-73
2022/11/01 15:51:14;;;;;;;;;;;;;;;;;;4977413;28;19921;-73
2022/11/01 15:53:41;;;;;;;;;;;;;;;;;;4990668;28;20003;-73
2022/11/01 15:56:07;;;;;;;;;;;;;;;;;;5000664;28;19922;-73
2022/11/01 15:58:33;;;;;;;;;;;;;;;;;;4999025;28;19922;-73
2022/11/01 16:01:00;;;;;;;;;;;;;;;;;;4995377;28;19928;-73
2022/11/01 16:03:26;;;;;;;;;;;;;;;;;;5009485;28;19917;-73
2022/11/01 16:05:52;;;;;;;;;;;;;;;;;;4987766;28;19929;-73
2022/11/01 16:08:17;;;;;;;;;;;;;;;;;;4983607;28;20410;-71
2022/11/01 16:10:43;;;;;;;;;;;;;;;;;;4999641;28;19921;-70
2022/11/01 16:13:09;;;;;;;;;;;;;;;;;;4988665;28;19971;-79
2022/11/01 16:15:35;;;;;;;;;;;;;;;;;;4991016;28;19972;-73
2022/11/01 16:18:01;;;;;;;;;;;;;;;;;;4979250;28;19996;-67
2022/11/01 16:20:30;;;;;;;;;;;;;;;;;;4988389;28;19925;-69
2022/11/01 16:22:56;;;;;;;;;;;;;;;;;;4999941;28;20016;-68
2022/11/01 16:25:23;;;;;;;5.70;1.60;;;;;;;;;;5001764;28;20011;-68
2022/11/01 16:27:49;;;;;;;;;;;;;;;;;;4990810;28;19921;-68
2022/11/01 16:30:15;;;;;;;;;;;;;;;;;;4984650;28;19929;-69
2022/11/01 16:32:41;;;;;;;;;;;;;;;;;;5002161;28;20364;-69
2022/11/01 16:35:07;;;;;;;;;;;;;;;;;;5015686;28;20364;-68